sensor_id;sensor_type;location;lat;lon;timestamp;pressure;altitude;pressure_sealevel;temperature;humidity
11648;BME280;5880;52.342;9.662;2023-03-14T00:02:22;98454.50;;;16.00;54.65
11648;BME280;5880;52.342;9.662;2023-03-14T00:04:48;98447.56;;;16.02;54.66
11648;BME280;5880;52.342;9.662;2023-03-14T00:07:14;98444.16;;;16.06;54.49
11648;BME280;5880;52.342;9.662;2023-03-14T00:09:40;98405.91;;;16.04;54.39
11648;BME280;5880;52.342;9.662;2023-03-14T00:12:06;98410.13;;;16.10;54.50
11648;BME280;5880;52.342;9.662;2023-03-14T00:14:32;98392.78;;;16.10;54.58
11648;BME280;5880;52.342;9.662;2023-03-14T00:16:58;98401.69;;;16.15;54.48
11648;BME280;5880;52.342;9.662;2023-03-14T00:19:24;98403.31;;;16.16;54.52
11648;BME280;5880;52.342;9.662;2023-03-14T00:21:49;98414.34;;;16.16;54.41
11648;BME280;5880;52.342;9.662;2023-03-14T00:24:15;98410.44;;;16.17;54.43
11648;BME280;5880;52.342;9.662;2023-03-14T00:26:41;98395.56;;;16.18;54.41
11648;BME280;5880;52.342;9.662;2023-03-14T00:29:06;98399.44;;;16.17;54.37
11648;BME280;5880;52.342;9.662;2023-03-14T00:31:32;98425.88;;;16.18;54.52
11648;BME280;5880;52.342;9.662;2023-03-14T00:33:58;98421.47;;;16.17;54.36
11648;BME280;5880;52.342;9.662;2023-03-14T00:36:23;98431.69;;;16.17;54.69
11648;BME280;5880;52.342;9.662;2023-03-14T00:38:51;98425.38;;;16.16;54.52
11648;BME280;5880;52.342;9.662;2023-03-14T00:41:24;98426.50;;;16.15;54.35
11648;BME280;5880;52.342;9.662;2023-03-14T00:43:52;98447.72;;;16.15;54.58
11648;BME280;5880;52.342;9.662;2023-03-14T00:46:18;98450.00;;;16.13;54.50
11648;BME280;5880;52.342;9.662;2023-03-14T00:48:47;98437.34;;;16.12;54.40
11648;BME280;5880;52.342;9.662;2023-03-14T00:51:13;98456.16;;;16.10;54.48
11648;BME280;5880;52.342;9.662;2023-03-14T00:53:40;98449.03;;;16.09;54.38
11648;BME280;5880;52.342;9.662;2023-03-14T00:56:10;98442.69;;;16.08;54.29
11648;BME280;5880;52.342;9.662;2023-03-14T00:58:36;98439.47;;;16.06;54.64
11648;BME280;5880;52.342;9.662;2023-03-14T01:01:13;98431.19;;;16.06;54.46
11648;BME280;5880;52.342;9.662;2023-03-14T01:03:39;98420.19;;;16.06;54.57
11648;BME280;5880;52.342;9.662;2023-03-14T01:06:21;98410.78;;;16.07;54.61
11648;BME280;5880;52.342;9.662;2023-03-14T01:08:47;98408.31;;;16.06;54.65
11648;BME280;5880;52.342;9.662;2023-03-14T01:11:21;98389.88;;;16.06;54.53
11648;BME280;5880;52.342;9.662;2023-03-14T01:13:48;98402.31;;;16.03;54.68
11648;BME280;5880;52.342;9.662;2023-03-14T01:16:20;98412.53;;;16.03;54.61
11648;BME280;5880;52.342;9.662;2023-03-14T01:18:47;98398.28;;;16.01;54.66
11648;BME280;5880;52.342;9.662;2023-03-14T01:21:18;98404.28;;;16.03;54.69
11648;BME280;5880;52.342;9.662;2023-03-14T01:23:45;98402.66;;;16.02;54.65
11648;BME280;5880;52.342;9.662;2023-03-14T01:26:13;98399.09;;;16.01;54.65
11648;BME280;5880;52.342;9.662;2023-03-14T01:28:40;98395.53;;;16.01;54.71
11648;BME280;5880;52.342;9.662;2023-03-14T01:31:08;98382.91;;;16.00;54.74
11648;BME280;5880;52.342;9.662;2023-03-14T01:33:35;98394.72;;;16.00;54.66
11648;BME280;5880;52.342;9.662;2023-03-14T01:36:02;98383.69;;;16.00;54.63
11648;BME280;5880;52.342;9.662;2023-03-14T01:38:30;98402.66;;;16.02;54.54
11648;BME280;5880;52.342;9.662;2023-03-14T01:40:56;98407.38;;;16.01;54.80
11648;BME280;5880;52.342;9.662;2023-03-14T01:43:22;98405.09;;;16.03;54.67
11648;BME280;5880;52.342;9.662;2023-03-14T01:46:25;98411.09;;;16.06;54.66
11648;BME280;5880;52.342;9.662;2023-03-14T01:52:06;98372.19;;;16.07;54.62
11648;BME280;5880;52.342;9.662;2023-03-14T01:54:51;98342.69;;;16.08;54.75
11648;BME280;5880;52.342;9.662;2023-03-14T01:57:29;98351.78;;;16.08;54.67
11648;BME280;5880;52.342;9.662;2023-03-14T02:00:21;98352.59;;;16.09;54.82
11648;BME280;5880;52.342;9.662;2023-03-14T02:02:51;98349.84;;;16.09;54.66
11648;BME280;5880;52.342;9.662;2023-03-14T02:05:28;98359.09;;;16.04;54.65
11648;BME280;5880;52.342;9.662;2023-03-14T02:07:59;98348.88;;;16.04;54.69
11648;BME280;5880;52.342;9.662;2023-03-14T02:10:37;98357.78;;;16.10;54.76
11648;BME280;5880;52.342;9.662;2023-03-14T02:13:06;98355.66;;;16.07;54.61
11648;BME280;5880;52.342;9.662;2023-03-14T02:15:32;98366.38;;;16.09;54.78
11648;BME280;5880;52.342;9.662;2023-03-14T02:18:02;98376.44;;;16.13;54.77
11648;BME280;5880;52.342;9.662;2023-03-14T02:23:09;98374.13;;;16.15;54.63
11648;BME280;5880;52.342;9.662;2023-03-14T02:25:52;98386.47;;;16.18;54.59
11648;BME280;5880;52.342;9.662;2023-03-14T02:28:22;98373.00;;;16.16;54.64
11648;BME280;5880;52.342;9.662;2023-03-14T02:30:48;98368.31;;;16.17;54.77
11648;BME280;5880;52.342;9.662;2023-03-14T02:33:17;98359.25;;;16.16;54.50
11648;BME280;5880;52.342;9.662;2023-03-14T02:35:51;98360.53;;;16.19;54.55
11648;BME280;5880;52.342;9.662;2023-03-14T02:41:09;98350.47;;;16.14;54.55
11648;BME280;5880;52.342;9.662;2023-03-14T02:43:34;98347.72;;;16.14;54.47
11648;BME280;5880;52.342;9.662;2023-03-14T02:46:01;98330.03;;;16.15;54.58
11648;BME280;5880;52.342;9.662;2023-03-14T02:48:36;98347.41;;;16.16;54.30
11648;BME280;5880;52.342;9.662;2023-03-14T02:51:05;98341.41;;;16.14;54.51
11648;BME280;5880;52.342;9.662;2023-03-14T02:53:36;98332.34;;;16.13;54.23
11648;BME280;5880;52.342;9.662;2023-03-14T02:56:03;98335.91;;;16.14;54.25
11648;BME280;5880;52.342;9.662;2023-03-14T02:58:30;98329.09;;;16.11;54.22
11648;BME280;5880;52.342;9.662;2023-03-14T03:00:56;98338.97;;;16.12;54.36
11648;BME280;5880;52.342;9.662;2023-03-14T03:03:22;98329.91;;;16.12;54.08
11648;BME280;5880;52.342;9.662;2023-03-14T03:05:53;98327.16;;;16.12;54.12
11648;BME280;5880;52.342;9.662;2023-03-14T03:08:22;98327.47;;;16.10;54.19
11648;BME280;5880;52.342;9.662;2023-03-14T03:10:49;98325.38;;;16.07;54.08
11648;BME280;5880;52.342;9.662;2023-03-14T03:13:16;98323.75;;;16.06;54.09
11648;BME280;5880;52.342;9.662;2023-03-14T03:15:42;98322.44;;;16.03;54.00
11648;BME280;5880;52.342;9.662;2023-03-14T03:18:08;98317.59;;;16.00;54.09
11648;BME280;5880;52.342;9.662;2023-03-14T03:20:34;98316.78;;;16.00;53.94
11648;BME280;5880;52.342;9.662;2023-03-14T03:23:00;98302.50;;;15.98;54.05
11648;BME280;5880;52.342;9.662;2023-03-14T03:25:27;98303.31;;;15.98;54.06
11648;BME280;5880;52.342;9.662;2023-03-14T03:27:53;98306.06;;;15.98;54.12
11648;BME280;5880;52.342;9.662;2023-03-14T03:30:19;98308.81;;;15.98;54.14
11648;BME280;5880;52.342;9.662;2023-03-14T03:32:45;98310.78;;;15.98;54.08
11648;BME280;5880;52.342;9.662;2023-03-14T03:35:11;98309.16;;;15.97;54.16
11648;BME280;5880;52.342;9.662;2023-03-14T03:37:37;98308.34;;;15.96;53.92
11648;BME280;5880;52.342;9.662;2023-03-14T03:40:04;98307.53;;;15.96;54.08
11648;BME280;5880;52.342;9.662;2023-03-14T03:42:32;98306.25;;;15.93;54.14
11648;BME280;5880;52.342;9.662;2023-03-14T03:45:00;98328.13;;;15.90;54.14
11648;BME280;5880;52.342;9.662;2023-03-14T03:47:26;98340.09;;;15.85;54.17
11648;BME280;5880;52.342;9.662;2023-03-14T03:49:52;98345.25;;;15.78;54.27
11648;BME280;5880;52.342;9.662;2023-03-14T03:52:18;98345.22;;;15.69;54.08
11648;BME280;5880;52.342;9.662;2023-03-14T03:54:44;98332.41;;;15.56;54.08
11648;BME280;5880;52.342;9.662;2023-03-14T03:57:09;98335.63;;;15.40;54.41
11648;BME280;5880;52.342;9.662;2023-03-14T03:59:35;98327.94;;;15.29;54.42
11648;BME280;5880;52.342;9.662;2023-03-14T04:02:00;98312.88;;;15.17;54.30
11648;BME280;5880;52.342;9.662;2023-03-14T04:04:26;98317.22;;;15.10;54.34
11648;BME280;5880;52.342;9.662;2023-03-14T04:06:52;98322.69;;;15.01;54.42
11648;BME280;5880;52.342;9.662;2023-03-14T04:09:17;98316.84;;;14.94;54.55
11648;BME280;5880;52.342;9.662;2023-03-14T04:11:43;98305.97;;;14.89;54.41
11648;BME280;5880;52.342;9.662;2023-03-14T04:14:09;98316.31;;;14.83;54.55
11648;BME280;5880;52.342;9.662;2023-03-14T04:16:35;98326.31;;;14.79;54.40
11648;BME280;5880;52.342;9.662;2023-03-14T04:19:02;98329.69;;;14.76;54.58
11648;BME280;5880;52.342;9.662;2023-03-14T04:21:28;98322.38;;;14.71;54.48
11648;BME280;5880;52.342;9.662;2023-03-14T04:23:54;98327.69;;;14.68;54.63
11648;BME280;5880;52.342;9.662;2023-03-14T04:26:20;98325.56;;;14.65;54.61
11648;BME280;5880;52.342;9.662;2023-03-14T04:28:45;98331.72;;;14.62;54.67
11648;BME280;5880;52.342;9.662;2023-03-14T04:31:16;98324.91;;;14.59;54.73
11648;BME280;5880;52.342;9.662;2023-03-14T04:33:42;98318.41;;;14.55;54.66
11648;BME280;5880;52.342;9.662;2023-03-14T04:36:08;98304.28;;;14.48;54.63
11648;BME280;5880;52.342;9.662;2023-03-14T04:38:35;98317.38;;;14.51;54.71
11648;BME280;5880;52.342;9.662;2023-03-14T04:41:02;98316.06;;;14.48;54.56
11648;BME280;5880;52.342;9.662;2023-03-14T04:43:28;98312.81;;;14.46;54.40
11648;BME280;5880;52.342;9.662;2023-03-14T04:45:55;98307.97;;;14.43;54.40
11648;BME280;5880;52.342;9.662;2023-03-14T04:48:21;98301.97;;;14.41;54.38
11648;BME280;5880;52.342;9.662;2023-03-14T04:50:48;98302.59;;;14.38;54.50
11648;BME280;5880;52.342;9.662;2023-03-14T04:53:15;98302.09;;;14.36;54.43
11648;BME280;5880;52.342;9.662;2023-03-14T04:55:41;98296.41;;;14.32;54.45
11648;BME280;5880;52.342;9.662;2023-03-14T04:58:06;98300.59;;;14.30;54.61
11648;BME280;5880;52.342;9.662;2023-03-14T05:00:32;98296.53;;;14.27;54.65
11648;BME280;5880;52.342;9.662;2023-03-14T05:02:58;98285.88;;;14.26;54.63
11648;BME280;5880;52.342;9.662;2023-03-14T05:05:24;98283.75;;;14.23;54.58
11648;BME280;5880;52.342;9.662;2023-03-14T05:07:50;98268.19;;;14.18;54.80
11648;BME280;5880;52.342;9.662;2023-03-14T05:10:16;98267.09;;;14.19;54.75
11648;BME280;5880;52.342;9.662;2023-03-14T05:12:42;98268.19;;;14.18;54.77
11648;BME280;5880;52.342;9.662;2023-03-14T05:15:08;98260.59;;;14.15;54.67
11648;BME280;5880;52.342;9.662;2023-03-14T05:17:37;98259.78;;;14.14;54.74
11648;BME280;5880;52.342;9.662;2023-03-14T05:20:03;98264.28;;;14.10;54.75
11648;BME280;5880;52.342;9.662;2023-03-14T05:22:35;98274.75;;;14.08;54.85
11648;BME280;5880;52.342;9.662;2023-03-14T05:25:01;98272.66;;;14.05;54.86
11648;BME280;5880;52.342;9.662;2023-03-14T05:27:26;98274.09;;;14.03;55.03
11648;BME280;5880;52.342;9.662;2023-03-14T05:29:52;98265.34;;;14.01;55.08
11648;BME280;5880;52.342;9.662;2023-03-14T05:32:18;98264.84;;;13.99;55.14
11648;BME280;5880;52.342;9.662;2023-03-14T05:34:43;98269.84;;;13.97;55.19
11648;BME280;5880;52.342;9.662;2023-03-14T05:37:09;98261.44;;;13.93;55.25
11648;BME280;5880;52.342;9.662;2023-03-14T05:39:35;98269.31;;;13.94;55.35
11648;BME280;5880;52.342;9.662;2023-03-14T05:42:00;98272.41;;;13.93;55.34
11648;BME280;5880;52.342;9.662;2023-03-14T05:44:26;98266.41;;;13.91;55.40
11648;BME280;5880;52.342;9.662;2023-03-14T05:46:51;98273.22;;;13.93;55.56
11648;BME280;5880;52.342;9.662;2023-03-14T05:49:17;98275.97;;;13.93;55.60
11648;BME280;5880;52.342;9.662;2023-03-14T05:51:43;98274.03;;;13.94;55.70
11648;BME280;5880;52.342;9.662;2023-03-14T05:54:08;98274.31;;;13.92;55.73
11648;BME280;5880;52.342;9.662;2023-03-14T05:56:34;98281.63;;;13.97;55.87
11648;BME280;5880;52.342;9.662;2023-03-14T05:59:00;98278.88;;;13.97;55.85
11648;BME280;5880;52.342;9.662;2023-03-14T06:01:29;98279.69;;;13.98;55.71
11648;BME280;5880;52.342;9.662;2023-03-14T06:03:55;98275.03;;;13.98;55.88
11648;BME280;5880;52.342;9.662;2023-03-14T06:06:21;98266.97;;;14.02;55.77
11648;BME280;5880;52.342;9.662;2023-03-14T06:08:46;98255.69;;;14.03;55.92
11648;BME280;5880;52.342;9.662;2023-03-14T06:11:12;98260.03;;;14.04;56.00
11648;BME280;5880;52.342;9.662;2023-03-14T06:13:37;98268.59;;;14.03;55.91
11648;BME280;5880;52.342;9.662;2023-03-14T06:16:03;98266.53;;;14.08;56.05
11648;BME280;5880;52.342;9.662;2023-03-14T06:18:29;98274.97;;;14.12;56.25
11648;BME280;5880;52.342;9.662;2023-03-14T06:20:56;98264.97;;;14.16;56.08
11648;BME280;5880;52.342;9.662;2023-03-14T06:23:22;98257.84;;;14.15;56.37
11648;BME280;5880;52.342;9.662;2023-03-14T06:25:48;98272.97;;;14.26;56.39
11648;BME280;5880;52.342;9.662;2023-03-14T06:28:14;98271.81;;;14.27;56.30
11648;BME280;5880;52.342;9.662;2023-03-14T06:30:41;98277.38;;;14.36;56.30
11648;BME280;5880;52.342;9.662;2023-03-14T06:33:06;98270.44;;;14.39;56.23
11648;BME280;5880;52.342;9.662;2023-03-14T06:35:32;98284.38;;;14.42;56.11
11648;BME280;5880;52.342;9.662;2023-03-14T06:37:58;98282.94;;;14.45;56.24
11648;BME280;5880;52.342;9.662;2023-03-14T06:40:24;98287.78;;;14.48;56.29
11648;BME280;5880;52.342;9.662;2023-03-14T06:42:49;98282.47;;;14.51;56.25
11648;BME280;5880;52.342;9.662;2023-03-14T06:45:15;98268.13;;;14.54;56.20
11648;BME280;5880;52.342;9.662;2023-03-14T06:47:41;98274.94;;;14.57;56.20
11648;BME280;5880;52.342;9.662;2023-03-14T06:50:08;98282.53;;;14.60;56.13
11648;BME280;5880;52.342;9.662;2023-03-14T06:52:35;98277.25;;;14.64;56.05
11648;BME280;5880;52.342;9.662;2023-03-14T06:55:01;98271.09;;;14.67;56.14
11648;BME280;5880;52.342;9.662;2023-03-14T06:57:27;98288.59;;;14.71;55.98
11648;BME280;5880;52.342;9.662;2023-03-14T06:59:52;98271.28;;;14.70;56.01
11648;BME280;5880;52.342;9.662;2023-03-14T07:02:18;98280.38;;;14.80;55.99
11648;BME280;5880;52.342;9.662;2023-03-14T07:04:44;98274.25;;;14.83;55.65
11648;BME280;5880;52.342;9.662;2023-03-14T07:07:10;98281.56;;;14.87;55.62
11648;BME280;5880;52.342;9.662;2023-03-14T07:09:35;98272.16;;;14.88;55.58
11648;BME280;5880;52.342;9.662;2023-03-14T07:12:03;98275.25;;;14.87;55.47
11648;BME280;5880;52.342;9.662;2023-03-14T07:14:30;98273.91;;;14.84;55.57
11648;BME280;5880;52.342;9.662;2023-03-14T07:16:55;98279.41;;;14.84;55.71
11648;BME280;5880;52.342;9.662;2023-03-14T07:19:21;98263.75;;;14.85;55.85
11648;BME280;5880;52.342;9.662;2023-03-14T07:21:47;98274.91;;;14.88;55.37
11648;BME280;5880;52.342;9.662;2023-03-14T07:24:12;98269.09;;;14.90;55.81
11648;BME280;5880;52.342;9.662;2023-03-14T07:26:38;98278.66;;;14.92;55.79
11648;BME280;5880;52.342;9.662;2023-03-14T07:29:04;98278.81;;;14.96;55.61
11648;BME280;5880;52.342;9.662;2023-03-14T07:31:30;98275.59;;;15.03;55.82
11648;BME280;5880;52.342;9.662;2023-03-14T07:33:56;98283.25;;;15.06;55.58
11648;BME280;5880;52.342;9.662;2023-03-14T07:36:21;98289.69;;;15.10;55.58
11648;BME280;5880;52.342;9.662;2023-03-14T07:38:47;98285.66;;;15.07;55.31
11648;BME280;5880;52.342;9.662;2023-03-14T07:41:13;98294.59;;;15.13;55.35
11648;BME280;5880;52.342;9.662;2023-03-14T07:43:39;98300.09;;;15.13;55.23
11648;BME280;5880;52.342;9.662;2023-03-14T07:46:05;98299.91;;;15.09;54.97
11648;BME280;5880;52.342;9.662;2023-03-14T07:48:30;98306.34;;;15.05;55.19
11648;BME280;5880;52.342;9.662;2023-03-14T07:50:57;98290.31;;;14.98;55.32
11648;BME280;5880;52.342;9.662;2023-03-14T07:53:24;98301.81;;;15.00;55.23
11648;BME280;5880;52.342;9.662;2023-03-14T07:55:54;98302.16;;;14.98;55.32
11648;BME280;5880;52.342;9.662;2023-03-14T07:58:20;98299.69;;;14.97;55.56
11648;BME280;5880;52.342;9.662;2023-03-14T08:00:47;98293.06;;;14.98;55.53
11648;BME280;5880;52.342;9.662;2023-03-14T08:03:13;98289.00;;;14.95;55.61
11648;BME280;5880;52.342;9.662;2023-03-14T08:05:39;98293.41;;;14.96;55.56
11648;BME280;5880;52.342;9.662;2023-03-14T08:08:06;98289.16;;;14.90;55.70
11648;BME280;5880;52.342;9.662;2023-03-14T08:10:32;98297.25;;;14.95;55.68
11648;BME280;5880;52.342;9.662;2023-03-14T08:13:00;98295.81;;;14.98;56.00
11648;BME280;5880;52.342;9.662;2023-03-14T08:15:28;98296.00;;;15.02;56.12
11648;BME280;5880;52.342;9.662;2023-03-14T08:17:55;98295.69;;;15.03;55.98
11648;BME280;5880;52.342;9.662;2023-03-14T08:20:24;98296.03;;;15.10;56.01
11648;BME280;5880;52.342;9.662;2023-03-14T08:22:50;98307.50;;;15.12;55.80
11648;BME280;5880;52.342;9.662;2023-03-14T08:25:16;98294.09;;;15.11;55.82
11648;BME280;5880;52.342;9.662;2023-03-14T08:27:43;98288.25;;;15.12;55.68
11648;BME280;5880;52.342;9.662;2023-03-14T08:30:18;98289.88;;;15.13;55.94
11648;BME280;5880;52.342;9.662;2023-03-14T08:32:44;98295.53;;;15.17;56.02
11648;BME280;5880;52.342;9.662;2023-03-14T08:35:11;98290.53;;;15.19;56.21
11648;BME280;5880;52.342;9.662;2023-03-14T08:37:37;98296.38;;;15.26;56.26
11648;BME280;5880;52.342;9.662;2023-03-14T08:40:05;98301.28;;;15.29;56.16
11648;BME280;5880;52.342;9.662;2023-03-14T08:42:36;98286.88;;;15.32;56.13
11648;BME280;5880;52.342;9.662;2023-03-14T08:45:03;98286.38;;;15.30;55.88
11648;BME280;5880;52.342;9.662;2023-03-14T08:47:30;98292.88;;;15.34;55.65
11648;BME280;5880;52.342;9.662;2023-03-14T08:49:55;98291.72;;;15.35;56.03
11648;BME280;5880;52.342;9.662;2023-03-14T08:52:22;98292.38;;;15.32;56.07
11648;BME280;5880;52.342;9.662;2023-03-14T08:54:47;98292.22;;;15.37;56.22
11648;BME280;5880;52.342;9.662;2023-03-14T08:57:14;98292.69;;;15.39;56.10
11648;BME280;5880;52.342;9.662;2023-03-14T08:59:39;98300.66;;;15.41;56.18
11648;BME280;5880;52.342;9.662;2023-03-14T09:02:05;98292.69;;;15.39;56.01
11648;BME280;5880;52.342;9.662;2023-03-14T09:04:32;98300.16;;;15.39;56.12
11648;BME280;5880;52.342;9.662;2023-03-14T09:06:59;98298.53;;;15.38;56.29
11648;BME280;5880;52.342;9.662;2023-03-14T09:09:25;98290.75;;;15.40;56.32
11648;BME280;5880;52.342;9.662;2023-03-14T09:11:56;98295.94;;;15.41;56.46
11648;BME280;5880;52.342;9.662;2023-03-14T09:14:22;98291.75;;;15.44;56.36
11648;BME280;5880;52.342;9.662;2023-03-14T09:16:48;98294.50;;;15.44;56.47
11648;BME280;5880;52.342;9.662;2023-03-14T09:19:14;98296.44;;;15.44;56.42
11648;BME280;5880;52.342;9.662;2023-03-14T09:21:40;98311.31;;;15.43;56.40
11648;BME280;5880;52.342;9.662;2023-03-14T09:24:06;98302.25;;;15.42;56.55
11648;BME280;5880;52.342;9.662;2023-03-14T09:26:31;98299.50;;;15.42;56.86
11648;BME280;5880;52.342;9.662;2023-03-14T09:28:57;98298.84;;;15.45;56.91
11648;BME280;5880;52.342;9.662;2023-03-14T09:31:23;98300.66;;;15.50;57.14
11648;BME280;5880;52.342;9.662;2023-03-14T09:33:49;98307.31;;;15.57;57.25
11648;BME280;5880;52.342;9.662;2023-03-14T09:36:14;98310.41;;;15.65;57.04
11648;BME280;5880;52.342;9.662;2023-03-14T09:38:40;98307.50;;;15.70;57.33
11648;BME280;5880;52.342;9.662;2023-03-14T09:41:18;98302.53;;;15.80;57.39
11648;BME280;5880;52.342;9.662;2023-03-14T09:43:48;98311.09;;;15.96;57.92
11648;BME280;5880;52.342;9.662;2023-03-14T09:46:16;98302.34;;;16.20;58.69
11648;BME280;5880;52.342;9.662;2023-03-14T09:48:43;98301.81;;;16.53;59.09
11648;BME280;5880;52.342;9.662;2023-03-14T09:51:17;98297.16;;;16.92;58.93
11648;BME280;5880;52.342;9.662;2023-03-14T09:53:49;98308.72;;;17.24;58.23
11648;BME280;5880;52.342;9.662;2023-03-14T09:56:31;98299.72;;;17.36;56.82
11648;BME280;5880;52.342;9.662;2023-03-14T09:59:03;98314.34;;;17.36;56.32
11648;BME280;5880;52.342;9.662;2023-03-14T10:01:33;98309.13;;;17.35;56.41
11648;BME280;5880;52.342;9.662;2023-03-14T10:04:10;98301.00;;;17.38;56.50
11648;BME280;5880;52.342;9.662;2023-03-14T10:06:38;98297.25;;;17.43;56.80
11648;BME280;5880;52.342;9.662;2023-03-14T10:09:04;98295.53;;;17.59;57.29
11648;BME280;5880;52.342;9.662;2023-03-14T10:11:31;98295.88;;;17.79;57.12
11648;BME280;5880;52.342;9.662;2023-03-14T10:14:08;98297.06;;;17.99;57.08
11648;BME280;5880;52.342;9.662;2023-03-14T10:16:45;98298.38;;;18.13;56.49
11648;BME280;5880;52.342;9.662;2023-03-14T10:19:15;98287.94;;;18.19;56.14
11648;BME280;5880;52.342;9.662;2023-03-14T10:21:44;98293.13;;;18.21;55.95
11648;BME280;5880;52.342;9.662;2023-03-14T10:24:29;98294.38;;;18.23;55.43
11648;BME280;5880;52.342;9.662;2023-03-14T10:29:27;98296.50;;;18.05;54.82
11648;BME280;5880;52.342;9.662;2023-03-14T10:31:58;98302.78;;;17.93;54.55
11648;BME280;5880;52.342;9.662;2023-03-14T10:34:36;98306.09;;;17.78;54.43
11648;BME280;5880;52.342;9.662;2023-03-14T10:37:24;98308.16;;;17.60;54.78
11648;BME280;5880;52.342;9.662;2023-03-14T10:40:13;98304.06;;;17.45;54.49
11648;BME280;5880;52.342;9.662;2023-03-14T10:42:42;98304.78;;;17.34;54.48
11648;BME280;5880;52.342;9.662;2023-03-14T10:45:36;98295.25;;;17.22;54.51
11648;BME280;5880;52.342;9.662;2023-03-14T10:56:25;98295.91;;;16.81;54.99
11648;BME280;5880;52.342;9.662;2023-03-14T10:58:56;98298.50;;;16.77;54.95
11648;BME280;5880;52.342;9.662;2023-03-14T11:01:44;98298.69;;;16.72;55.04
11648;BME280;5880;52.342;9.662;2023-03-14T11:07:40;98288.16;;;16.57;55.13
11648;BME280;5880;52.342;9.662;2023-03-14T11:10:18;98305.69;;;16.61;55.19
11648;BME280;5880;52.342;9.662;2023-03-14T11:16:24;98321.25;;;16.48;55.29
11648;BME280;5880;52.342;9.662;2023-03-14T11:19:38;98384.53;;;16.36;55.15
11648;BME280;5880;52.342;9.662;2023-03-14T11:22:35;98428.44;;;16.15;54.29
11648;BME280;5880;52.342;9.662;2023-03-14T11:25:18;98448.59;;;15.75;52.93
11648;BME280;5880;52.342;9.662;2023-03-14T11:28:24;98468.34;;;15.37;52.65
11648;BME280;5880;52.342;9.662;2023-03-14T11:31:07;98472.78;;;14.93;52.52
11648;BME280;5880;52.342;9.662;2023-03-14T11:34:34;98479.13;;;14.57;52.60
11648;BME280;5880;52.342;9.662;2023-03-14T11:39:45;98500.59;;;14.05;53.13
11648;BME280;5880;52.342;9.662;2023-03-14T11:42:16;98508.13;;;13.86;53.24
11648;BME280;5880;52.342;9.662;2023-03-14T11:44:47;98533.13;;;13.70;53.55
11648;BME280;5880;52.342;9.662;2023-03-14T11:47:26;98535.34;;;13.55;53.48
11648;BME280;5880;52.342;9.662;2023-03-14T11:50:15;98545.47;;;13.40;53.51
11648;BME280;5880;52.342;9.662;2023-03-14T11:53:22;98567.44;;;13.21;53.74
11648;BME280;5880;52.342;9.662;2023-03-14T11:55:51;98577.56;;;13.07;53.83
11648;BME280;5880;52.342;9.662;2023-03-14T11:58:37;98605.44;;;12.95;53.61
11648;BME280;5880;52.342;9.662;2023-03-14T12:01:10;98618.81;;;12.78;53.73
11648;BME280;5880;52.342;9.662;2023-03-14T12:04:05;98657.41;;;12.62;53.42
11648;BME280;5880;52.342;9.662;2023-03-14T12:06:50;98665.88;;;12.42;53.56
11648;BME280;5880;52.342;9.662;2023-03-14T12:09:20;98668.25;;;12.24;53.27
11648;BME280;5880;52.342;9.662;2023-03-14T12:12:00;98691.44;;;12.08;53.19
11648;BME280;5880;52.342;9.662;2023-03-14T12:14:28;98702.25;;;11.89;53.16
11648;BME280;5880;52.342;9.662;2023-03-14T12:17:05;98713.56;;;11.77;53.59
11648;BME280;5880;52.342;9.662;2023-03-14T12:19:35;98731.19;;;11.66;53.37
11648;BME280;5880;52.342;9.662;2023-03-14T12:24:49;98758.06;;;11.54;53.62
11648;BME280;5880;52.342;9.662;2023-03-14T12:30:40;98780.38;;;11.32;53.42
11648;BME280;5880;52.342;9.662;2023-03-14T12:35:43;98804.78;;;11.13;53.37
11648;BME280;5880;52.342;9.662;2023-03-14T12:38:46;98820.41;;;11.02;53.44
11648;BME280;5880;52.342;9.662;2023-03-14T12:41:27;98823.44;;;10.90;53.60
11648;BME280;5880;52.342;9.662;2023-03-14T12:43:54;98832.78;;;10.84;53.54
11648;BME280;5880;52.342;9.662;2023-03-14T12:46:27;98828.16;;;10.80;53.77
11648;BME280;5880;52.342;9.662;2023-03-14T12:49:07;98831.72;;;10.75;53.96
11648;BME280;5880;52.342;9.662;2023-03-14T12:51:39;98835.25;;;10.75;54.11
11648;BME280;5880;52.342;9.662;2023-03-14T12:54:34;98856.28;;;10.70;53.63
11648;BME280;5880;52.342;9.662;2023-03-14T12:57:27;98857.41;;;10.64;53.79
11648;BME280;5880;52.342;9.662;2023-03-14T13:00:22;98863.16;;;10.57;54.31
11648;BME280;5880;52.342;9.662;2023-03-14T13:02:50;98872.44;;;10.56;54.13
11648;BME280;5880;52.342;9.662;2023-03-14T13:05:24;98893.47;;;10.55;54.26
11648;BME280;5880;52.342;9.662;2023-03-14T13:10:24;98925.13;;;10.72;54.84
11648;BME280;5880;52.342;9.662;2023-03-14T13:13:15;98932.25;;;10.78;54.69
11648;BME280;5880;52.342;9.662;2023-03-14T13:15:46;98937.69;;;10.83;55.02
11648;BME280;5880;52.342;9.662;2023-03-14T13:18:26;98950.28;;;10.89;54.92
11648;BME280;5880;52.342;9.662;2023-03-14T13:21:02;98940.44;;;10.93;55.00
11648;BME280;5880;52.342;9.662;2023-03-14T13:23:32;98940.97;;;11.01;55.24
11648;BME280;5880;52.342;9.662;2023-03-14T13:26:01;98954.34;;;11.07;55.21
11648;BME280;5880;52.342;9.662;2023-03-14T13:28:29;98962.56;;;11.12;55.26
11648;BME280;5880;52.342;9.662;2023-03-14T13:31:00;98971.28;;;11.19;55.68
11648;BME280;5880;52.342;9.662;2023-03-14T13:33:26;98983.84;;;11.26;55.83
11648;BME280;5880;52.342;9.662;2023-03-14T13:36:00;98991.75;;;11.32;55.33
11648;BME280;5880;52.342;9.662;2023-03-14T13:38:31;99005.16;;;11.34;55.13
11648;BME280;5880;52.342;9.662;2023-03-14T13:41:00;99018.56;;;11.35;55.13
11648;BME280;5880;52.342;9.662;2023-03-14T13:43:39;99033.34;;;11.34;55.06
11648;BME280;5880;52.342;9.662;2023-03-14T13:46:20;99026.78;;;11.30;55.22
11648;BME280;5880;52.342;9.662;2023-03-14T13:48:52;99037.19;;;11.33;55.15
11648;BME280;5880;52.342;9.662;2023-03-14T13:51:21;99047.56;;;11.36;55.47
11648;BME280;5880;52.342;9.662;2023-03-14T13:53:50;99050.53;;;11.40;55.36
11648;BME280;5880;52.342;9.662;2023-03-14T13:56:20;99055.50;;;11.43;55.14
11648;BME280;5880;52.342;9.662;2023-03-14T13:58:46;99062.31;;;11.46;55.14
11648;BME280;5880;52.342;9.662;2023-03-14T14:01:32;99062.03;;;11.52;55.24
11648;BME280;5880;52.342;9.662;2023-03-14T14:04:07;99066.13;;;11.55;55.04
11648;BME280;5880;52.342;9.662;2023-03-14T14:06:47;99090.47;;;11.56;54.96